sensor_id;sensor_type;location;lat;lon;timestamp;pressure;altitude;pressure_sealevel;temperature;humidity
54666;BME280;40566;50.006;36.180;2023-04-08T00:03:11;100091.25;;;11.47;59.58
54666;BME280;40566;50.006;36.180;2023-04-08T00:08:12;100093.13;;;11.42;59.53
54666;BME280;40566;50.006;36.180;2023-04-08T00:13:12;100090.56;;;11.41;59.40
54666;BME280;40566;50.006;36.180;2023-04-08T00:18:15;100079.31;;;11.42;59.31
54666;BME280;40566;50.006;36.180;2023-04-08T00:23:16;100092.34;;;11.39;59.59
54666;BME280;40566;50.006;36.180;2023-04-08T00:28:17;100092.53;;;11.31;59.61
54666;BME280;40566;50.006;36.180;2023-04-08T00:33:17;100090.13;;;11.23;59.32
54666;BME280;40566;50.006;36.180;2023-04-08T00:38:18;100095.44;;;11.19;59.12
54666;BME280;40566;50.006;36.180;2023-04-08T00:43:19;100099.03;;;11.11;59.03
54666;BME280;40566;50.006;36.180;2023-04-08T00:48:20;100094.03;;;11.05;59.01
54666;BME280;40566;50.006;36.180;2023-04-08T00:53:21;100099.38;;;10.98;59.11
54666;BME280;40566;50.006;36.180;2023-04-08T00:58:21;100095.28;;;10.89;59.11
54666;BME280;40566;50.006;36.180;2023-04-08T01:03:36;100092.00;;;10.82;58.81
54666;BME280;40566;50.006;36.180;2023-04-08T01:08:42;100102.44;;;10.78;59.06
54666;BME280;40566;50.006;36.180;2023-04-08T01:13:44;100098.31;;;10.70;58.93
54666;BME280;40566;50.006;36.180;2023-04-08T01:18:47;100100.13;;;10.65;59.01
54666;BME280;40566;50.006;36.180;2023-04-08T01:24:00;100101.09;;;10.61;59.08
54666;BME280;40566;50.006;36.180;2023-04-08T01:29:04;100108.16;;;10.53;59.24
54666;BME280;40566;50.006;36.180;2023-04-08T01:34:06;100107.50;;;10.45;59.21
54666;BME280;40566;50.006;36.180;2023-04-08T01:39:07;100105.78;;;10.44;59.26
54666;BME280;40566;50.006;36.180;2023-04-08T01:44:10;100110.94;;;10.44;58.95
54666;BME280;40566;50.006;36.180;2023-04-08T01:49:11;100123.84;;;10.45;58.98
54666;BME280;40566;50.006;36.180;2023-04-08T01:54:12;100127.25;;;10.47;58.83
54666;BME280;40566;50.006;36.180;2023-04-08T01:59:14;100118.69;;;10.45;59.04
54666;BME280;40566;50.006;36.180;2023-04-08T02:04:16;100127.38;;;10.41;59.25
54666;BME280;40566;50.006;36.180;2023-04-08T02:09:16;100131.81;;;10.35;59.00
54666;BME280;40566;50.006;36.180;2023-04-08T02:14:17;100138.00;;;10.26;59.04
54666;BME280;40566;50.006;36.180;2023-04-08T02:24:58;100122.72;;;10.15;58.90
54666;BME280;40566;50.006;36.180;2023-04-08T02:30:02;100110.78;;;10.08;58.78
54666;BME280;40566;50.006;36.180;2023-04-08T02:35:04;100125.50;;;10.04;59.05
54666;BME280;40566;50.006;36.180;2023-04-08T02:40:26;100127.28;;;10.01;58.67
54666;BME280;40566;50.006;36.180;2023-04-08T02:45:30;100127.38;;;9.98;58.71
54666;BME280;40566;50.006;36.180;2023-04-08T02:50:32;100140.34;;;9.93;58.88
54666;BME280;40566;50.006;36.180;2023-04-08T02:55:32;100148.19;;;9.88;58.78
54666;BME280;40566;50.006;36.180;2023-04-08T03:00:33;100148.31;;;9.82;58.81
54666;BME280;40566;50.006;36.180;2023-04-08T03:05:34;100152.56;;;9.85;58.55
54666;BME280;40566;50.006;36.180;2023-04-08T03:10:34;100145.78;;;9.79;58.87
54666;BME280;40566;50.006;36.180;2023-04-08T03:15:35;100152.69;;;9.77;58.69
54666;BME280;40566;50.006;36.180;2023-04-08T03:20:36;100156.94;;;9.81;58.38
54666;BME280;40566;50.006;36.180;2023-04-08T03:25:36;100150.91;;;9.82;58.10
54666;BME280;40566;50.006;36.180;2023-04-08T03:30:37;100158.75;;;9.76;58.07
54666;BME280;40566;50.006;36.180;2023-04-08T03:35:37;100174.31;;;9.73;58.45
54666;BME280;40566;50.006;36.180;2023-04-08T03:40:38;100176.03;;;9.74;58.71
54666;BME280;40566;50.006;36.180;2023-04-08T03:45:38;100180.41;;;9.67;58.50
54666;BME280;40566;50.006;36.180;2023-04-08T03:50:39;100177.00;;;9.65;59.20
54666;BME280;40566;50.006;36.180;2023-04-08T03:55:40;100184.72;;;9.68;58.87
54666;BME280;40566;50.006;36.180;2023-04-08T04:00:40;100188.13;;;9.72;58.67
54666;BME280;40566;50.006;36.180;2023-04-08T04:05:41;100188.94;;;9.74;58.49
54666;BME280;40566;50.006;36.180;2023-04-08T04:10:41;100197.56;;;9.73;58.50
54666;BME280;40566;50.006;36.180;2023-04-08T04:15:42;100206.19;;;9.73;58.54
54666;BME280;40566;50.006;36.180;2023-04-08T04:20:43;100196.69;;;9.74;58.55
54666;BME280;40566;50.006;36.180;2023-04-08T04:25:43;100200.97;;;9.75;58.43
54666;BME280;40566;50.006;36.180;2023-04-08T04:30:44;100211.28;;;9.77;58.25
54666;BME280;40566;50.006;36.180;2023-04-08T04:35:45;100216.44;;;9.77;58.49
54666;BME280;40566;50.006;36.180;2023-04-08T04:40:46;100218.91;;;9.84;58.29
54666;BME280;40566;50.006;36.180;2023-04-08T04:45:46;100232.59;;;9.89;58.03
54666;BME280;40566;50.006;36.180;2023-04-08T04:50:56;100215.28;;;9.95;58.11
54666;BME280;40566;50.006;36.180;2023-04-08T04:55:57;100235.69;;;10.08;58.10
54666;BME280;40566;50.006;36.180;2023-04-08T05:00:58;100229.47;;;10.20;57.97
54666;BME280;40566;50.006;36.180;2023-04-08T05:05:58;100247.31;;;10.36;57.79
54666;BME280;40566;50.006;36.180;2023-04-08T05:10:59;100249.06;;;10.34;57.48
54666;BME280;40566;50.006;36.180;2023-04-08T05:16:01;100250.84;;;10.30;57.78
54666;BME280;40566;50.006;36.180;2023-04-08T05:21:02;100252.56;;;10.29;58.00
54666;BME280;40566;50.006;36.180;2023-04-08T05:26:06;100240.31;;;10.41;57.79
54666;BME280;40566;50.006;36.180;2023-04-08T05:31:06;100252.16;;;10.52;57.50
54666;BME280;40566;50.006;36.180;2023-04-08T05:36:07;100262.13;;;10.73;57.44
54666;BME280;40566;50.006;36.180;2023-04-08T05:41:07;100265.09;;;10.96;56.92
54666;BME280;40566;50.006;36.180;2023-04-08T05:46:09;100257.72;;;11.18;56.57
54666;BME280;40566;50.006;36.180;2023-04-08T05:51:14;100257.25;;;11.38;56.35
54666;BME280;40566;50.006;36.180;2023-04-08T05:56:15;100275.91;;;11.52;56.05
54666;BME280;40566;50.006;36.180;2023-04-08T06:01:15;100286.00;;;11.65;55.74
54666;BME280;40566;50.006;36.180;2023-04-08T06:06:16;100279.72;;;11.75;55.79
54666;BME280;40566;50.006;36.180;2023-04-08T06:11:16;100274.22;;;11.89;55.72
54666;BME280;40566;50.006;36.180;2023-04-08T06:16:17;100274.38;;;12.17;55.08
54666;BME280;40566;50.006;36.180;2023-04-08T06:21:18;100276.97;;;12.50;54.49
54666;BME280;40566;50.006;36.180;2023-04-08T06:26:19;100285.03;;;12.72;53.92
54666;BME280;40566;50.006;36.180;2023-04-08T06:31:19;100287.00;;;12.94;53.60
54666;BME280;40566;50.006;36.180;2023-04-08T06:36:21;100292.41;;;12.86;53.67
54666;BME280;40566;50.006;36.180;2023-04-08T06:41:21;100293.31;;;12.85;53.90
54666;BME280;40566;50.006;36.180;2023-04-08T06:46:22;100290.72;;;12.85;53.87
54666;BME280;40566;50.006;36.180;2023-04-08T06:51:22;100296.22;;;13.04;53.37
54666;BME280;40566;50.006;36.180;2023-04-08T06:56:23;100295.09;;;13.13;52.92
54666;BME280;40566;50.006;36.180;2023-04-08T07:01:25;100289.72;;;13.19;52.47
54666;BME280;40566;50.006;36.180;2023-04-08T07:06:26;100286.25;;;13.20;52.74
54666;BME280;40566;50.006;36.180;2023-04-08T07:11:26;100287.22;;;13.16;52.72
54666;BME280;40566;50.006;36.180;2023-04-08T07:16:27;100292.91;;;13.28;52.55
54666;BME280;40566;50.006;36.180;2023-04-08T07:21:27;100298.22;;;13.54;51.70
54666;BME280;40566;50.006;36.180;2023-04-08T07:26:29;100291.03;;;13.62;51.10
54666;BME280;40566;50.006;36.180;2023-04-08T07:31:30;100307.34;;;13.67;51.38
54666;BME280;40566;50.006;36.180;2023-04-08T07:36:30;100307.47;;;13.91;51.11
54666;BME280;40566;50.006;36.180;2023-04-08T07:41:31;100303.81;;;13.96;50.94
54666;BME280;40566;50.006;36.180;2023-04-08T07:46:36;100286.00;;;14.11;50.41
54666;BME280;40566;50.006;36.180;2023-04-08T07:51:36;100305.16;;;14.08;50.38
54666;BME280;40566;50.006;36.180;2023-04-08T07:56:37;100297.06;;;14.42;49.61
54666;BME280;40566;50.006;36.180;2023-04-08T08:01:39;100299.75;;;14.90;48.59
54666;BME280;40566;50.006;36.180;2023-04-08T08:06:40;100305.03;;;15.34;47.99
54666;BME280;40566;50.006;36.180;2023-04-08T08:11:40;100316.63;;;15.49;47.94
54666;BME280;40566;50.006;36.180;2023-04-08T08:16:41;100320.50;;;15.38;48.19
54666;BME280;40566;50.006;36.180;2023-04-08T08:21:43;100317.31;;;15.30;48.98
54666;BME280;40566;50.006;36.180;2023-04-08T08:26:44;100326.28;;;15.46;48.56
54666;BME280;40566;50.006;36.180;2023-04-08T08:31:46;100337.81;;;15.63;48.68
54666;BME280;40566;50.006;36.180;2023-04-08T08:36:47;100337.22;;;15.78;48.49
54666;BME280;40566;50.006;36.180;2023-04-08T08:41:48;100341.50;;;16.01;48.52
54666;BME280;40566;50.006;36.180;2023-04-08T08:46:49;100331.84;;;16.25;47.45
54666;BME280;40566;50.006;36.180;2023-04-08T08:51:51;100319.81;;;16.21;47.54
54666;BME280;40566;50.006;36.180;2023-04-08T08:56:53;100328.78;;;16.57;46.54
54666;BME280;40566;50.006;36.180;2023-04-08T09:01:53;100325.56;;;16.71;46.29
54666;BME280;40566;50.006;36.180;2023-04-08T09:07:10;100312.41;;;17.12;45.56
54666;BME280;40566;50.006;36.180;2023-04-08T09:12:13;100339.41;;;17.50;44.16
54666;BME280;40566;50.006;36.180;2023-04-08T09:17:13;100331.16;;;17.77;44.18
54666;BME280;40566;50.006;36.180;2023-04-08T09:22:15;100335.63;;;18.11;43.62
54666;BME280;40566;50.006;36.180;2023-04-08T09:27:15;100328.63;;;18.29;42.99
54666;BME280;40566;50.006;36.180;2023-04-08T09:32:16;100327.91;;;19.59;40.56
54666;BME280;40566;50.006;36.180;2023-04-08T09:37:16;100327.38;;;19.84;39.75
54666;BME280;40566;50.006;36.180;2023-04-08T09:42:18;100323.91;;;19.84;39.95
54666;BME280;40566;50.006;36.180;2023-04-08T09:47:24;100323.06;;;19.67;40.25
54666;BME280;40566;50.006;36.180;2023-04-08T09:52:38;100324.66;;;19.86;39.44
54666;BME280;40566;50.006;36.180;2023-04-08T09:57:48;100331.03;;;20.42;38.63
54666;BME280;40566;50.006;36.180;2023-04-08T10:07:57;100322.69;;;24.97;31.53
54666;BME280;40566;50.006;36.180;2023-04-08T10:12:58;100334.09;;;22.82;34.89
54666;BME280;40566;50.006;36.180;2023-04-08T10:23:51;100323.56;;;22.82;35.12
54666;BME280;40566;50.006;36.180;2023-04-08T10:28:27;100321.84;;;24.85;31.72
54666;BME280;40566;50.006;36.180;2023-04-08T10:38:29;100331.91;;;27.86;28.83
54666;BME280;40566;50.006;36.180;2023-04-08T10:43:33;100316.25;;;31.19;25.00
54666;BME280;40566;50.006;36.180;2023-04-08T10:48:34;100330.16;;;32.87;23.49
54666;BME280;40566;50.006;36.180;2023-04-08T10:53:37;100322.81;;;33.20;23.50
54666;BME280;40566;50.006;36.180;2023-04-08T10:58:48;100327.22;;;32.57;24.34
54666;BME280;40566;50.006;36.180;2023-04-08T11:03:49;100316.38;;;29.96;27.20
54666;BME280;40566;50.006;36.180;2023-04-08T11:08:50;100315.81;;;29.39;27.50
54666;BME280;40566;50.006;36.180;2023-04-08T11:13:51;100309.75;;;30.53;26.16
54666;BME280;40566;50.006;36.180;2023-04-08T11:18:52;100317.38;;;30.74;25.90
54666;BME280;40566;50.006;36.180;2023-04-08T11:23:54;100302.50;;;31.81;24.43
54666;BME280;40566;50.006;36.180;2023-04-08T11:28:56;100302.38;;;33.73;22.29
54666;BME280;40566;50.006;36.180;2023-04-08T11:33:57;100300.19;;;32.03;24.14
54666;BME280;40566;50.006;36.180;2023-04-08T11:38:58;100296.78;;;31.59;24.49
54666;BME280;40566;50.006;36.180;2023-04-08T11:43:58;100293.41;;;29.32;26.51
54666;BME280;40566;50.006;36.180;2023-04-08T11:49:00;100292.47;;;25.98;29.81
54666;BME280;40566;50.006;36.180;2023-04-08T11:54:04;100277.97;;;24.83;30.65
54666;BME280;40566;50.006;36.180;2023-04-08T11:59:08;100295.22;;;23.95;31.18
54666;BME280;40566;50.006;36.180;2023-04-08T12:04:09;100286.69;;;23.43;31.79
54666;BME280;40566;50.006;36.180;2023-04-08T12:09:10;100296.97;;;23.59;31.70
54666;BME280;40566;50.006;36.180;2023-04-08T12:14:11;100294.53;;;23.32;31.95
54666;BME280;40566;50.006;36.180;2023-04-08T12:19:11;100296.44;;;22.93;32.17
54666;BME280;40566;50.006;36.180;2023-04-08T12:24:12;100282.22;;;22.70;32.49
54666;BME280;40566;50.006;36.180;2023-04-08T12:29:12;100283.50;;;22.51;32.35
54666;BME280;40566;50.006;36.180;2023-04-08T12:34:13;100277.84;;;22.17;32.45
54666;BME280;40566;50.006;36.180;2023-04-08T12:39:13;100274.19;;;22.20;31.95
54666;BME280;40566;50.006;36.180;2023-04-08T12:44:14;100278.34;;;21.84;32.08
54666;BME280;40566;50.006;36.180;2023-04-08T12:49:15;100278.03;;;21.49;32.56
54666;BME280;40566;50.006;36.180;2023-04-08T12:54:15;100285.28;;;21.16;32.69
54666;BME280;40566;50.006;36.180;2023-04-08T12:59:16;100282.25;;;20.67;33.01
54666;BME280;40566;50.006;36.180;2023-04-08T13:04:17;100282.09;;;20.25;33.20
54666;BME280;40566;50.006;36.180;2023-04-08T13:09:19;100287.50;;;20.08;32.87
54666;BME280;40566;50.006;36.180;2023-04-08T13:14:20;100291.72;;;19.80;32.91
54666;BME280;40566;50.006;36.180;2023-04-08T13:19:20;100289.88;;;19.50;33.24
54666;BME280;40566;50.006;36.180;2023-04-08T13:24:21;100283.88;;;19.48;33.08
54666;BME280;40566;50.006;36.180;2023-04-08T13:29:21;100276.63;;;19.37;32.90
54666;BME280;40566;50.006;36.180;2023-04-08T13:34:22;100279.81;;;19.42;32.86
54666;BME280;40566;50.006;36.180;2023-04-08T13:39:23;100277.19;;;19.42;32.69
54666;BME280;40566;50.006;36.180;2023-04-08T13:44:23;100265.25;;;19.37;32.34
54666;BME280;40566;50.006;36.180;2023-04-08T13:49:24;100264.84;;;19.13;32.70
54666;BME280;40566;50.006;36.180;2023-04-08T13:54:25;100265.78;;;18.96;32.78
54666;BME280;40566;50.006;36.180;2023-04-08T13:59:26;100259.28;;;18.70;33.09
54666;BME280;40566;50.006;36.180;2023-04-08T14:04:27;100263.94;;;18.65;33.24
54666;BME280;40566;50.006;36.180;2023-04-08T14:09:27;100257.19;;;18.43;33.61
54666;BME280;40566;50.006;36.180;2023-04-08T14:14:28;100258.63;;;18.15;34.13
54666;BME280;40566;50.006;36.180;2023-04-08T14:19:29;100262.91;;;17.99;34.18
54666;BME280;40566;50.006;36.180;2023-04-08T14:24:30;100261.94;;;17.84;33.94
54666;BME280;40566;50.006;36.180;2023-04-08T14:29:30;100258.66;;;17.61;34.61
54666;BME280;40566;50.006;36.180;2023-04-08T14:34:31;100265.16;;;17.53;34.60
54666;BME280;40566;50.006;36.180;2023-04-08T14:39:31;100267.44;;;17.41;34.99
54666;BME280;40566;50.006;36.180;2023-04-08T14:44:32;100265.78;;;17.21;35.02
54666;BME280;40566;50.006;36.180;2023-04-08T14:49:33;100265.50;;;17.09;35.43
54666;BME280;40566;50.006;36.180;2023-04-08T14:54:33;100276.66;;;16.93;35.52
54666;BME280;40566;50.006;36.180;2023-04-08T14:59:34;100276.28;;;16.82;35.83
54666;BME280;40566;50.006;36.180;2023-04-08T15:04:34;100277.81;;;16.67;36.10
54666;BME280;40566;50.006;36.180;2023-04-08T15:09:35;100284.16;;;16.61;36.17
54666;BME280;40566;50.006;36.180;2023-04-08T15:14:35;100292.66;;;16.46;36.47
54666;BME280;40566;50.006;36.180;2023-04-08T15:19:36;100288.97;;;16.31;36.33
54666;BME280;40566;50.006;36.180;2023-04-08T15:24:36;100294.94;;;16.13;36.56
54666;BME280;40566;50.006;36.180;2023-04-08T15:29:37;100292.00;;;16.00;37.06
54666;BME280;40566;50.006;36.180;2023-04-08T15:34:38;100298.63;;;15.86;37.08
54666;BME280;40566;50.006;36.180;2023-04-08T15:39:38;100302.59;;;15.75;37.44
54666;BME280;40566;50.006;36.180;2023-04-08T15:44:40;100302.28;;;15.60;37.95
54666;BME280;40566;50.006;36.180;2023-04-08T15:49:41;100296.03;;;15.42;38.28
54666;BME280;40566;50.006;36.180;2023-04-08T15:54:42;100297.50;;;15.26;38.75
54666;BME280;40566;50.006;36.180;2023-04-08T15:59:43;100299.97;;;15.07;38.83
54666;BME280;40566;50.006;36.180;2023-04-08T16:04:43;100307.38;;;14.94;39.56
54666;BME280;40566;50.006;36.180;2023-04-08T16:09:44;100312.25;;;14.80;39.76
54666;BME280;40566;50.006;36.180;2023-04-08T16:14:45;100310.09;;;14.67;40.43
54666;BME280;40566;50.006;36.180;2023-04-08T16:19:46;100320.09;;;14.53;40.74
54666;BME280;40566;50.006;36.180;2023-04-08T16:24:47;100324.09;;;14.38;40.94
54666;BME280;40566;50.006;36.180;2023-04-08T16:29:47;100318.41;;;14.27;41.33
54666;BME280;40566;50.006;36.180;2023-04-08T16:34:48;100330.84;;;14.17;41.39
54666;BME280;40566;50.006;36.180;2023-04-08T16:39:49;100332.91;;;14.07;41.50
54666;BME280;40566;50.006;36.180;2023-04-08T16:44:57;100323.56;;;14.02;41.47
54666;BME280;40566;50.006;36.180;2023-04-08T16:49:59;100341.88;;;13.99;41.88
54666;BME280;40566;50.006;36.180;2023-04-08T16:54:59;100350.88;;;13.88;42.01
54666;BME280;40566;50.006;36.180;2023-04-08T17:00:00;100348.38;;;13.85;41.58
54666;BME280;40566;50.006;36.180;2023-04-08T17:05:01;100349.38;;;13.81;41.93
54666;BME280;40566;50.006;36.180;2023-04-08T17:10:02;100356.97;;;13.87;41.68
54666;BME280;40566;50.006;36.180;2023-04-08T17:15:03;100355.88;;;13.95;41.82
54666;BME280;40566;50.006;36.180;2023-04-08T17:20:04;100374.69;;;14.03;41.77
54666;BME280;40566;50.006;36.180;2023-04-08T17:25:05;100360.78;;;14.04;42.22
54666;BME280;40566;50.006;36.180;2023-04-08T17:30:07;100374.69;;;14.03;42.49
54666;BME280;40566;50.006;36.180;2023-04-08T17:35:08;100386.69;;;14.07;42.49
54666;BME280;40566;50.006;36.180;2023-04-08T17:40:09;100392.75;;;14.07;42.46
54666;BME280;40566;50.006;36.180;2023-04-08T17:45:09;100392.06;;;14.02;42.85
54666;BME280;40566;50.006;36.180;2023-04-08T17:50:10;100396.47;;;14.00;43.28
54666;BME280;40566;50.006;36.180;2023-04-08T17:55:12;100384.09;;;14.07;42.94
54666;BME280;40566;50.006;36.180;2023-04-08T18:00:13;100392.75;;;14.07;43.17
54666;BME280;40566;50.006;36.180;2023-04-08T18:05:14;100400.63;;;14.06;43.37
54666;BME280;40566;50.006;36.180;2023-04-08T18:10:14;100404.03;;;14.08;43.69
54666;BME280;40566;50.006;36.180;2023-04-08T18:15:16;100398.88;;;14.06;43.70
54666;BME280;40566;50.006;36.180;2023-04-08T18:20:17;100410.16;;;14.05;43.88
54666;BME280;40566;50.006;36.180;2023-04-08T18:25:17;100422.31;;;14.05;43.65
54666;BME280;40566;50.006;36.180;2023-04-08T18:30:21;100416.47;;;13.98;44.27
54666;BME280;40566;50.006;36.180;2023-04-08T18:35:23;100413.91;;;13.97;45.25
54666;BME280;40566;50.006;36.180;2023-04-08T18:40:24;100411.31;;;13.97;45.36
54666;BME280;40566;50.006;36.180;2023-04-08T18:45:24;100415.75;;;13.93;46.18
54666;BME280;40566;50.006;36.180;2023-04-08T18:50:25;100420.28;;;13.86;46.45
54666;BME280;40566;50.006;36.180;2023-04-08T18:55:25;100425.69;;;13.80;47.06
54666;BME280;40566;50.006;36.180;2023-04-08T19:00:26;100413.91;;;13.68;47.11
54666;BME280;40566;50.006;36.180;2023-04-08T19:05:27;100416.63;;;13.64;47.60
54666;BME280;40566;50.006;36.180;2023-04-08T19:10:31;100409.66;;;13.64;47.71
54666;BME280;40566;50.006;36.180;2023-04-08T19:15:32;100419.31;;;13.61;48.11
54666;BME280;40566;50.006;36.180;2023-04-08T19:20:32;100412.53;;;13.57;48.29
54666;BME280;40566;50.006;36.180;2023-04-08T19:25:34;100404.00;;;13.52;48.34
54666;BME280;40566;50.006;36.180;2023-04-08T19:30:36;100399.81;;;13.46;48.63
54666;BME280;40566;50.006;36.180;2023-04-08T19:35:38;100407.84;;;13.38;49.04
54666;BME280;40566;50.006;36.180;2023-04-08T19:40:39;100405.38;;;13.34;49.22
54666;BME280;40566;50.006;36.180;2023-04-08T19:45:40;100399.41;;;13.28;49.73
54666;BME280;40566;50.006;36.180;2023-04-08T19:50:41;100394.44;;;13.21;50.07
54666;BME280;40566;50.006;36.180;2023-04-08T19:55:43;100396.34;;;13.16;50.21
54666;BME280;40566;50.006;36.180;2023-04-08T20:00:43;100407.59;;;13.15;50.20
54666;BME280;40566;50.006;36.180;2023-04-08T20:05:44;100412.72;;;13.18;50.39
54666;BME280;40566;50.006;36.180;2023-04-08T20:10:46;100417.06;;;13.17;50.34
54666;BME280;40566;50.006;36.180;2023-04-08T20:15:48;100403.97;;;13.20;50.21
54666;BME280;40566;50.006;36.180;2023-04-08T20:20:48;100412.69;;;13.19;50.36
54666;BME280;40566;50.006;36.180;2023-04-08T20:25:49;100410.13;;;13.18;50.41
54666;BME280;40566;50.006;36.180;2023-04-08T20:30:50;100410.13;;;13.18;50.12
54666;BME280;40566;50.006;36.180;2023-04-08T20:35:51;100414.47;;;13.17;50.50
54666;BME280;40566;50.006;36.180;2023-04-08T20:40:52;100407.38;;;13.22;50.16
54666;BME280;40566;50.006;36.180;2023-04-08T20:45:53;100416.13;;;13.20;50.04
54666;BME280;40566;50.006;36.180;2023-04-08T20:50:53;100405.63;;;13.23;49.99
54666;BME280;40566;50.006;36.180;2023-04-08T20:55:54;100401.25;;;13.25;50.12
54666;BME280;40566;50.006;36.180;2023-04-08T21:00:58;100390.16;;;13.20;49.88
54666;BME280;40566;50.006;36.180;2023-04-08T21:05:59;100407.56;;;13.16;49.88
54666;BME280;40566;50.006;36.180;2023-04-08T21:10:59;100409.69;;;13.02;50.15
54666;BME280;40566;50.006;36.180;2023-04-08T21:16:00;100407.38;;;12.91;50.53
54666;BME280;40566;50.006;36.180;2023-04-08T21:21:01;100410.16;;;12.83;50.52
54666;BME280;40566;50.006;36.180;2023-04-08T21:26:01;100408.81;;;12.70;50.62
54666;BME280;40566;50.006;36.180;2023-04-08T21:31:09;100387.44;;;12.60;50.53
54666;BME280;40566;50.006;36.180;2023-04-08T21:36:10;100400.03;;;12.40;51.01
54666;BME280;40566;50.006;36.180;2023-04-08T21:41:11;100398.41;;;12.36;50.83
54666;BME280;40566;50.006;36.180;2023-04-08T21:46:11;100396.88;;;12.28;50.90
54666;BME280;40566;50.006;36.180;2023-04-08T21:51:15;100389.03;;;12.30;50.74
54666;BME280;40566;50.006;36.180;2023-04-08T21:56:16;100403.16;;;12.18;51.35
54666;BME280;40566;50.006;36.180;2023-04-08T22:01:16;100393.00;;;12.09;51.26
54666;BME280;40566;50.006;36.180;2023-04-08T22:06:17;100397.56;;;11.99;51.59
54666;BME280;40566;50.006;36.180;2023-04-08T22:11:17;100392.47;;;11.95;51.78
54666;BME280;40566;50.006;36.180;2023-04-08T22:16:18;100397.81;;;11.87;51.75
54666;BME280;40566;50.006;36.180;2023-04-08T22:21:19;100396.25;;;11.78;51.82
54666;BME280;40566;50.006;36.180;2023-04-08T22:26:20;100400.75;;;11.71;52.40
54666;BME280;40566;50.006;36.180;2023-04-08T22:31:20;100395.63;;;11.68;52.30
54666;BME280;40566;50.006;36.180;2023-04-08T22:36:21;100398.22;;;11.67;52.21
54666;BME280;40566;50.006;36.180;2023-04-08T22:41:22;100395.69;;;11.65;52.68
54666;BME280;40566;50.006;36.180;2023-04-08T22:46:24;100400.72;;;11.73;52.32
54666;BME280;40566;50.006;36.180;2023-04-08T22:51:26;100396.25;;;11.78;52.39
54666;BME280;40566;50.006;36.180;2023-04-08T22:56:27;100403.06;;;11.84;52.53
54666;BME280;40566;50.006;36.180;2023-04-08T23:01:29;100399.50;;;11.88;52.81
54666;BME280;40566;50.006;36.180;2023-04-08T23:06:30;100398.69;;;11.86;52.50
54666;BME280;40566;50.006;36.180;2023-04-08T23:11:32;100406.63;;;11.78;52.62
54666;BME280;40566;50.006;36.180;2023-04-08T23:16:32;100408.50;;;11.73;52.91
54666;BME280;40566;50.006;36.180;2023-04-08T23:21:34;100408.53;;;11.70;52.84
54666;BME280;40566;50.006;36.180;2023-04-08T23:26:35;100410.97;;;11.78;53.06
54666;BME280;40566;50.006;36.180;2023-04-08T23:31:35;100418.59;;;11.85;53.20
54666;BME280;40566;50.006;36.180;2023-04-08T23:36:36;100416.81;;;11.89;52.73
54666;BME280;40566;50.006;36.180;2023-04-08T23:41:37;100413.41;;;11.85;53.05
54666;BME280;40566;50.006;36.180;2023-04-08T23:46:37;100415.06;;;11.89;53.25
54666;BME280;40566;50.006;36.180;2023-04-08T23:51:38;100422.94;;;11.85;53.15
54666;BME280;40566;50.006;36.180;2023-04-08T23:56:39;100409.97;;;11.85;53.42
